Flight Track Log - Related Links

Times and Time Zones

All times are in EDT time to prevent confusion due to time zone crossing. See the SKW6330 flight status page for this flight to view local times or setup timezone preferences in your user account.

Time Position Orientation Groundspeed Altitude Reporting Facility
EDT Latitude Longitude Course Direction KTS MPH feet Rate Location/Type
Sun 07:29:43 PM 33.9475 -118.4581 338° Northwest 143 165 1,600  Level Los Center
Sun 07:30:45 PM 33.9581 -118.5233 281° West 196 226 2,600 1,065 Climbing Los Center
Sun 07:31:47 PM 33.9717 -118.5978 282° West 212 244 3,800 1,258 Climbing Los Center
Sun 07:32:00 PM 34.1405 -118.5048 331° Northwest  Level FlightAware
Sun 07:32:49 PM 33.9978 -118.6583 297° West 221 254 5,200  Level Los Center
Sun 07:33:00 PM 34.2116 -118.5475 338° Northwest  Level FlightAware
Sun 07:33:51 PM 34.0631 -118.6703 351° North 221 254 6,500  Level Los Center
Sun 07:34:00 PM 34.2830 -118.5832 338° Northwest  Level FlightAware
Sun 07:34:53 PM 34.1289 -118.6828 351° North 229 264 7,100  Level Los Center
Sun 07:35:55 PM 34.1931 -118.6936 352° North 231 266 8,400 1,258 Climbing Los Center
Sun 07:36:57 PM 34.2536 -118.7061 350° North 223 257 9,700 1,210 Climbing Los Center
Sun 07:37:59 PM 34.3142 -118.7136 354° North 217 250 10,900 1,065 Climbing Los Center
Sun 07:39:01 PM 34.3756 -118.7197 355° North 222 255 11,900 816 Climbing Los Center
Sun 07:40:04 PM 34.4372 -118.7369 347° North 231 266 12,600 768 Climbing Los Center
Sun 07:41:06 PM 34.5108 -118.7647 343° North 232 267 13,500 677 Climbing Los Center
Sun 07:42:08 PM 34.5731 -118.7842 346° North 233 268 14,000 339 Climbing Los Center
Sun 07:43:10 PM 34.6394 -118.8069 344° North 246 283 14,200 484 Climbing Los Center
Sun 07:44:12 PM 34.7047 -118.8300 344° North 246 283 15,000 677 Climbing Los Center
Sun 07:45:14 PM 34.7694 -118.8506 345° North 241 277 15,600 484 Climbing Los Center
Sun 07:46:16 PM 34.8381 -118.8614 353° North 246 283 16,000 677 Climbing Los Center
Sun 07:47:18 PM 34.9142 -118.8714 354° North 243 280 17,000 871 Climbing Los Center
Sun 07:48:20 PM 34.9772 -118.8803 353° North 232 267 17,800 677 Climbing Los Center
Sun 07:49:22 PM 35.0386 -118.8903 352° North 226 260 18,400 581 Climbing Los Center
Sun 07:50:24 PM 35.1019 -118.8989 354° North 227 261 19,000 480 Climbing Los Center
Sun 07:51:27 PM 35.1786 -118.9117 352° North 231 266 19,400 576 Climbing Los Center
Sun 07:52:29 PM 35.2461 -118.9203 354° North 239 275 20,200 726 Climbing Los Center
Sun 07:53:31 PM 35.3106 -118.9300 353° North 238 274 20,900 581 Climbing Los Center
Sun 07:54:33 PM 35.3747 -118.9403 353° North 234 269 21,400 532 Climbing Los Center
Sun 07:55:35 PM 35.4375 -118.9492 353° North 230 265 22,000 290 Climbing Los Center
Sun 07:56:37 PM 35.5153 -118.9619 352° North 233 268 22,000  Level Los Center
Sun 07:57:39 PM 35.5872 -118.9733 353° North 247 284 22,000  Level Los Center
Sun 07:58:41 PM 35.6578 -118.9831 354° North 254 292 22,000  Level Los Center
Sun 07:58:59 PM 35.6672 -118.9847 352° North 248 285 22,000  Level Oakland Center
Sun 08:00:01 PM 35.7525 -118.9978 353° North 253 291 22,000  Level Oakland Center
Sun 08:01:02 PM 35.8242 -119.0081 353° North 256 295 22,000 -639 Level Oakland Center
Sun 08:02:03 PM 35.8967 -119.0194 353° North 258 297 20,700 -1,463 Descending Oakland Center
Sun 08:03:05 PM 35.9794 -119.0519 342° North 288 331 19,000 -1,659 Descending Oakland Center
Sun 08:04:06 PM 36.0617 -119.0933 338° Northwest 311 358 17,300 -1,770 Descending Oakland Center
Sun 08:05:07 PM 36.1431 -119.1314 339° North 315 362 15,400 -1,610 Descending Oakland Center
Sun 08:06:09 PM 36.2244 -119.1717 338° Northwest 316 364 14,000 -1,220 Descending Oakland Center
Sun 08:07:10 PM 36.3014 -119.2064 340° North 293 337 12,900 -1,475 Descending Oakland Center
Sun 08:08:11 PM 36.3778 -119.2419 339° North 294 338 11,000 -1,967 Descending Oakland Center
Sun 08:09:12 PM 36.4678 -119.2875 338° Northwest 292 336 8,900 -1,854 Descending Oakland Center
Sun 08:10:14 PM 36.5283 -119.3458 322° Northwest 288 331 7,200 -1,561 Descending Oakland Center
Sun 08:11:15 PM 36.5786 -119.4183 311° West 280 322 5,700 -1,475 Descending Oakland Center
Sun 08:12:16 PM 36.6256 -119.4886 310° West 267 307 4,200 -1,475 Descending Oakland Center

Login

Don't have an account? Register now (free) for customized features, flight alerts, and more!